createdAt,value
2022-10-31T00:00:01.059Z,22.7
2022-10-31T00:05:01.827Z,22.7
2022-10-31T00:10:00.175Z,22.6
2022-10-31T00:15:01.206Z,22.6
2022-10-31T00:20:00.131Z,22.6
2022-10-31T00:25:00.124Z,22.6
2022-10-31T00:30:01.076Z,22.5
2022-10-31T00:35:00.109Z,22.5
2022-10-31T00:40:00.121Z,22.5
2022-10-31T00:45:00.138Z,22.5
2022-10-31T00:50:01.314Z,22.5
2022-10-31T00:55:01.006Z,22.5
2022-10-31T01:00:00.169Z,22.5
2022-10-31T01:05:00.102Z,22.4
2022-10-31T01:15:00.127Z,22.4
2022-10-31T01:20:00.147Z,22.4
2022-10-31T01:25:00.094Z,22.4
2022-10-31T01:30:01.300Z,22.4
2022-10-31T01:35:00.138Z,22.3
2022-10-31T01:40:01.235Z,22.4
2022-10-31T01:45:00.138Z,22.3
2022-10-31T01:50:01.010Z,22.3
2022-10-31T01:55:00.136Z,22.3
2022-10-31T02:00:00.119Z,22.3
2022-10-31T02:05:01.551Z,22.3
2022-10-31T02:10:00.162Z,22.3
2022-10-31T02:15:00.133Z,22.2
2022-10-31T02:20:00.993Z,22.2
2022-10-31T02:25:00.989Z,22.2
2022-10-31T02:30:01.248Z,22.2
2022-10-31T02:35:00.101Z,22.2
2022-10-31T02:40:00.991Z,22.2
2022-10-31T02:45:00.126Z,22.2
2022-10-31T02:50:01.081Z,22.2
2022-10-31T02:55:00.130Z,22.2
2022-10-31T03:00:01.016Z,22.2
2022-10-31T03:05:00.112Z,22.2
2022-10-31T03:10:01.030Z,22.1
2022-10-31T03:15:01.216Z,22.1
2022-10-31T03:20:00.177Z,22.1
2022-10-31T03:25:01.015Z,22.1
2022-10-31T03:30:01.007Z,22.1
2022-10-31T03:35:01.177Z,22.1
2022-10-31T03:40:01.578Z,22.0
2022-10-31T03:45:00.132Z,22.0
2022-10-31T03:50:02.260Z,22.0
2022-10-31T03:55:00.115Z,22.0
2022-10-31T04:00:00.144Z,22.0
2022-10-31T04:05:01.241Z,22.0
2022-10-31T04:10:01.306Z,22.0
2022-10-31T04:15:00.125Z,22.0
2022-10-31T04:20:00.140Z,22.0
2022-10-31T04:25:00.100Z,22.0
2022-10-31T04:30:01.169Z,22.0
2022-10-31T04:35:00.157Z,22.0
2022-10-31T04:40:01.245Z,22.0
2022-10-31T04:45:00.112Z,22.0
2022-10-31T04:50:01.300Z,22.0
2022-10-31T04:55:00.101Z,22.0
2022-10-31T05:00:01.422Z,22.0
2022-10-31T05:05:00.109Z,22.0
2022-10-31T05:10:01.008Z,22.0
2022-10-31T05:15:01.013Z,21.9
2022-10-31T05:20:00.965Z,22.0
2022-10-31T05:25:01.228Z,22.0
2022-10-31T05:35:00.110Z,21.9
2022-10-31T05:40:03.778Z,21.9
2022-10-31T05:45:00.094Z,21.9
2022-10-31T05:50:01.263Z,21.9
2022-10-31T05:55:04.113Z,21.9
2022-10-31T06:00:01.448Z,21.9
2022-10-31T06:05:01.057Z,21.9
2022-10-31T06:10:01.300Z,21.9
2022-10-31T06:15:01.079Z,21.9
2022-10-31T06:20:01.744Z,21.9
2022-10-31T06:25:01.265Z,21.8
2022-10-31T06:30:01.092Z,21.9
2022-10-31T06:35:00.100Z,21.9
2022-10-31T06:40:00.154Z,21.8
2022-10-31T06:45:00.112Z,21.8
2022-10-31T06:50:01.225Z,21.8
2022-10-31T06:55:00.105Z,21.8
2022-10-31T07:00:01.020Z,21.8
2022-10-31T07:05:01.282Z,21.8
2022-10-31T07:10:01.347Z,21.8
2022-10-31T07:15:00.114Z,21.8
2022-10-31T07:20:01.027Z,21.8
2022-10-31T07:25:00.103Z,21.7
2022-10-31T07:30:00.191Z,21.7
2022-10-31T07:35:00.115Z,21.8
2022-10-31T07:40:00.151Z,21.8
2022-10-31T07:45:00.101Z,21.8
2022-10-31T07:50:00.161Z,21.8
2022-10-31T07:55:00.111Z,21.8
2022-10-31T08:00:01.084Z,21.8
2022-10-31T08:05:01.148Z,21.8
2022-10-31T08:10:00.165Z,21.8
2022-10-31T08:15:01.009Z,21.8
2022-10-31T08:20:01.273Z,21.8
2022-10-31T08:25:00.131Z,21.8
2022-10-31T08:30:00.157Z,21.8
2022-10-31T08:35:00.115Z,21.8
2022-10-31T08:40:01.035Z,21.8
2022-10-31T08:45:00.108Z,21.8
2022-10-31T08:50:00.181Z,21.8
2022-10-31T08:55:00.097Z,21.8
2022-10-31T09:00:01.438Z,21.8
2022-10-31T09:05:00.108Z,21.8
2022-10-31T09:10:00.204Z,21.8
2022-10-31T09:15:00.114Z,21.8
2022-10-31T09:20:01.309Z,21.9
2022-10-31T09:25:00.952Z,21.8
2022-10-31T09:30:01.886Z,21.8
2022-10-31T09:35:01.611Z,21.8
2022-10-31T09:40:01.217Z,21.9
2022-10-31T09:45:00.106Z,21.9
2022-10-31T09:50:00.335Z,21.9
2022-10-31T09:55:00.123Z,21.9
2022-10-31T10:00:02.048Z,21.9
2022-10-31T10:05:01.014Z,21.9
2022-10-31T10:10:01.228Z,21.9
2022-10-31T10:15:00.118Z,21.9
2022-10-31T10:20:01.280Z,21.9
2022-10-31T10:25:00.112Z,21.9
2022-10-31T10:30:00.188Z,21.9
2022-10-31T10:35:00.106Z,21.9
2022-10-31T10:40:01.039Z,21.9
2022-10-31T10:45:00.099Z,21.9
2022-10-31T10:50:00.153Z,21.9
2022-10-31T10:55:00.124Z,21.9
2022-10-31T11:00:01.064Z,22.0
2022-10-31T11:05:00.093Z,21.9
2022-10-31T11:10:01.039Z,22.0
2022-10-31T11:15:02.950Z,22.0
2022-10-31T11:20:01.346Z,22.0
2022-10-31T11:25:02.225Z,22.0
2022-10-31T11:30:01.192Z,22.0
2022-10-31T11:35:01.581Z,22.1
2022-10-31T11:40:01.091Z,22.1
2022-10-31T11:45:00.190Z,22.1
2022-10-31T11:50:01.581Z,22.1
2022-10-31T11:55:03.857Z,22.1
2022-10-31T12:00:01.116Z,22.2
2022-10-31T12:05:01.317Z,22.2
2022-10-31T12:10:01.099Z,22.2
2022-10-31T12:15:01.458Z,22.3
2022-10-31T12:20:01.107Z,22.4
2022-10-31T12:25:00.114Z,22.4
2022-10-31T12:30:01.957Z,22.4
2022-10-31T12:35:01.849Z,22.4
2022-10-31T12:40:00.128Z,22.5
2022-10-31T12:45:01.288Z,22.5
2022-10-31T12:50:01.041Z,22.5
2022-10-31T12:55:01.570Z,22.5
2022-10-31T13:00:01.876Z,22.5
2022-10-31T13:05:00.178Z,22.6
2022-10-31T13:10:01.007Z,22.6
2022-10-31T13:15:01.746Z,22.7
2022-10-31T13:20:01.336Z,22.7
2022-10-31T13:25:00.133Z,22.7
2022-10-31T13:30:01.159Z,22.8
2022-10-31T13:35:00.136Z,22.8
2022-10-31T13:40:01.010Z,22.8
2022-10-31T13:45:00.153Z,22.8
2022-10-31T13:50:01.545Z,22.8
2022-10-31T13:55:00.995Z,22.8
2022-10-31T14:00:00.173Z,22.9
2022-10-31T14:05:01.257Z,22.9
2022-10-31T14:10:01.373Z,22.9
2022-10-31T14:15:01.062Z,22.9
2022-10-31T14:20:01.326Z,22.9
2022-10-31T14:25:01.018Z,22.9
2022-10-31T14:30:01.573Z,22.9
2022-10-31T14:35:00.134Z,22.9
2022-10-31T14:40:01.350Z,23.0
2022-10-31T14:45:01.308Z,22.9
2022-10-31T14:50:01.067Z,23.0
2022-10-31T14:55:00.135Z,22.9
2022-10-31T15:00:02.722Z,23.0
2022-10-31T15:05:00.149Z,22.9
2022-10-31T15:10:01.064Z,23.0
2022-10-31T15:15:00.142Z,22.9
2022-10-31T15:20:00.145Z,23.0
2022-10-31T15:25:01.275Z,23.0
2022-10-31T15:30:02.085Z,22.9
2022-10-31T15:35:01.073Z,22.9
2022-10-31T15:40:00.156Z,22.9
2022-10-31T15:45:01.040Z,22.9
2022-10-31T15:50:00.197Z,22.9
2022-10-31T15:55:00.137Z,22.9
2022-10-31T16:00:01.067Z,22.9
2022-10-31T16:05:00.170Z,22.9
2022-10-31T16:10:01.663Z,22.9
2022-10-31T16:15:01.529Z,22.9
2022-10-31T16:20:01.569Z,22.9
2022-10-31T16:25:00.111Z,22.9
2022-10-31T16:30:00.174Z,22.8
2022-10-31T16:35:01.248Z,22.8
2022-10-31T16:40:00.208Z,22.8
2022-10-31T16:45:00.119Z,22.8
2022-10-31T16:50:01.242Z,22.7
2022-10-31T16:55:01.050Z,22.7
2022-10-31T17:00:01.255Z,22.7
2022-10-31T17:05:00.112Z,22.7
2022-10-31T17:10:00.297Z,22.7
2022-10-31T17:15:01.026Z,22.7
2022-10-31T17:20:00.156Z,22.7
2022-10-31T17:25:00.234Z,22.6
2022-10-31T17:30:01.067Z,22.6
2022-10-31T17:35:01.284Z,22.6
2022-10-31T17:40:01.165Z,22.5
2022-10-31T17:45:01.430Z,22.6
2022-10-31T17:50:01.302Z,22.6
2022-10-31T17:55:01.041Z,22.5
2022-10-31T18:00:02.411Z,22.5
2022-10-31T18:05:00.115Z,22.5
2022-10-31T18:10:01.913Z,22.6
2022-10-31T18:15:00.129Z,22.5
2022-10-31T18:20:00.816Z,22.5
2022-10-31T18:25:01.939Z,22.6
2022-10-31T18:30:01.349Z,22.5
2022-10-31T18:35:00.144Z,22.5
2022-10-31T18:40:00.147Z,22.5
2022-10-31T18:45:03.056Z,22.5
2022-10-31T18:50:00.186Z,22.5
2022-10-31T18:55:01.261Z,22.5
2022-10-31T19:00:00.144Z,22.5
2022-10-31T19:05:00.125Z,22.5
2022-10-31T19:10:01.585Z,22.5
2022-10-31T19:15:00.092Z,22.5
2022-10-31T19:20:00.133Z,22.5
2022-10-31T19:25:00.140Z,22.5
2022-10-31T19:30:01.032Z,22.5
2022-10-31T19:35:00.964Z,22.4
2022-10-31T19:40:00.891Z,22.4
2022-10-31T19:45:01.021Z,22.4
2022-10-31T19:50:03.017Z,22.4
2022-10-31T19:55:01.532Z,22.4
2022-10-31T20:00:00.141Z,22.4
2022-10-31T20:05:01.053Z,22.4
2022-10-31T20:10:00.175Z,22.4
2022-10-31T20:15:01.054Z,22.4
2022-10-31T20:20:01.055Z,22.3
2022-10-31T20:25:01.790Z,22.3
2022-10-31T20:30:00.134Z,22.3
2022-10-31T20:35:00.121Z,22.4
2022-10-31T20:40:01.033Z,22.4
2022-10-31T20:45:00.134Z,22.4
2022-10-31T20:50:01.288Z,22.4
2022-10-31T20:55:01.235Z,22.5
2022-10-31T21:00:01.574Z,22.5
2022-10-31T21:05:00.091Z,22.5
2022-10-31T21:10:01.546Z,22.5
2022-10-31T21:15:00.110Z,22.5
2022-10-31T21:20:01.013Z,22.6
2022-10-31T21:25:00.109Z,22.5
2022-10-31T21:30:01.290Z,22.6
2022-10-31T21:35:01.003Z,22.6
2022-10-31T21:40:00.159Z,22.6
2022-10-31T21:45:00.111Z,22.6
2022-10-31T21:50:01.024Z,22.6
2022-10-31T21:55:00.124Z,22.7
2022-10-31T22:00:01.380Z,22.7
2022-10-31T22:05:01.465Z,22.7
2022-10-31T22:10:01.025Z,22.7
2022-10-31T22:15:00.115Z,22.7
2022-10-31T22:20:01.393Z,22.8
2022-10-31T22:25:00.155Z,22.8
2022-10-31T22:30:01.576Z,22.8
2022-10-31T22:35:00.105Z,22.8
2022-10-31T22:40:00.170Z,22.8
2022-10-31T22:45:00.094Z,22.8
2022-10-31T22:50:03.638Z,22.8
2022-10-31T22:55:00.108Z,22.8
2022-10-31T23:00:00.178Z,22.8
2022-10-31T23:05:00.992Z,22.8
2022-10-31T23:10:01.238Z,22.8
2022-10-31T23:15:01.422Z,22.8
2022-10-31T23:20:00.161Z,22.8
2022-10-31T23:25:01.456Z,22.8
2022-10-31T23:30:03.102Z,22.8
2022-10-31T23:35:00.096Z,22.8
2022-10-31T23:40:01.554Z,22.8
2022-10-31T23:45:00.099Z,22.8
2022-10-31T23:50:01.480Z,22.8
2022-10-31T23:55:00.101Z,22.8
